Time;durP1;ratioP1;P1;durP2;ratioP2;P2;SDS_P1;SDS_P2;PMS_P1;PMS_P2;Temp;Humidity;BMP_temperature;BMP_pressure;BME280_temperature;BME280_humidity;BME280_pressure;Samples;Min_cycle;Max_cycle;Signal;HPM_P1;HPM_P2
2022/01/28 00:01:06;;;;;;;20.70;11.50;;;;;;;2.11;100.00;99216.22;4823335;29;20270;-59
2022/01/28 00:03:34;;;;;;;22.30;11.67;;;;;;;2.01;100.00;99212.78;4823467;29;20276;-59
2022/01/28 00:05:59;;;;;;;23.17;12.07;;;;;;;2.04;100.00;99202.78;4823426;29;20272;-58
2022/01/28 00:08:25;;;;;;;21.47;12.17;;;;;;;2.05;100.00;99206.25;4821914;29;20824;-59
2022/01/28 00:10:52;;;;;;;24.73;12.80;;;;;;;2.13;100.00;99206.38;4821748;29;20045;-59
2022/01/28 00:13:22;;;;;;;25.00;12.87;;;;;;;2.14;100.00;99210.69;4823115;29;20112;-58
2022/01/28 00:39:44;;;;;;;25.00;12.00;;;;;;;2.00;100.00;99238.28;4821954;29;20274;-58
2022/01/28 00:42:10;;;;;;;23.67;12.50;;;;;;;2.05;100.00;99246.63;4822681;29;20265;-59
2022/01/28 00:44:36;;;;;;;23.73;12.73;;;;;;;2.09;100.00;99242.72;4822732;29;20026;-58
2022/01/28 00:47:03;;;;;;;21.13;11.30;;;;;;;2.08;100.00;99251.59;4822727;29;20037;-58
2022/01/28 00:49:28;;;;;;;23.57;12.13;;;;;;;2.13;100.00;99253.81;4822489;29;20365;-58
2022/01/28 00:51:54;;;;;;;22.07;11.30;;;;;;;2.11;100.00;99246.06;4822591;29;20406;-58
2022/01/28 00:54:19;;;;;;;20.50;11.07;;;;;;;2.17;100.00;99248.16;4822471;29;20117;-58
2022/01/28 00:56:46;;;;;;;18.47;10.43;;;;;;;2.20;100.00;99244.38;4822570;29;20035;-58
2022/01/28 00:59:11;;;;;;;21.37;10.70;;;;;;;2.17;100.00;99234.97;4822448;29;20095;-58
2022/01/28 01:01:37;;;;;;;18.83;9.93;;;;;;;2.30;100.00;99245.22;4822378;29;20382;-58
2022/01/28 01:04:04;;;;;;;17.87;9.70;;;;;;;2.44;100.00;99251.81;4822562;29;20034;-59
2022/01/28 01:06:30;;;;;;;17.73;9.83;;;;;;;2.41;100.00;99247.69;4822509;29;20442;-58
2022/01/28 01:08:56;;;;;;;15.83;9.17;;;;;;;2.35;100.00;99250.03;4822257;29;20377;-58
2022/01/28 01:11:23;;;;;;;16.73;9.13;;;;;;;2.24;100.00;99255.47;4822181;29;21001;-58
2022/01/28 01:13:50;;;;;;;18.67;9.43;;;;;;;2.34;100.00;99265.03;4822358;29;20119;-58
2022/01/28 01:16:22;;;;;;;15.97;8.50;;;;;;;2.44;100.00;99255.28;4822413;29;20262;-58
2022/01/28 01:18:54;;;;;;;15.70;8.47;;;;;;;2.44;100.00;99257.94;4822293;29;20322;-58
2022/01/28 01:21:24;;;;;;;15.63;8.50;;;;;;;2.49;100.00;99261.00;4822490;29;20257;-58
2022/01/28 01:23:54;;;;;;;14.30;8.63;;;;;;;2.51;100.00;99252.94;4822468;29;20274;-58
2022/01/28 01:26:26;;;;;;;17.43;9.20;;;;;;;2.49;100.00;99257.53;4821137;29;20281;-58
2022/01/28 01:28:52;;;;;;;15.90;8.50;;;;;;;2.52;100.00;99258.06;4822235;29;20281;-58
2022/01/28 01:31:19;;;;;;;14.70;9.07;;;;;;;2.46;100.00;99270.97;4822167;29;20091;-58
2022/01/28 01:33:51;;;;;;;14.20;8.37;;;;;;;2.59;100.00;99265.41;4822338;29;20030;-58
2022/01/28 01:36:17;;;;;;;18.02;9.80;;;;;;;2.60;100.00;99270.53;4822288;29;20274;-58
2022/01/28 01:38:43;;;;;;;17.00;8.80;;;;;;;2.57;100.00;99272.63;4822250;29;20450;-58
2022/01/28 01:41:18;;;;;;;16.23;8.50;;;;;;;2.49;100.00;99261.00;4822201;29;20109;-58
2022/01/28 01:44:01;;;;;;;15.50;9.67;;;;;;;2.48;100.00;99267.25;4822186;29;20278;-58
2022/01/28 01:52:04;;;;;;;;;;;;;;;2.47;100.00;99254.19;4822360;29;20409;-58
2022/01/28 01:54:37;;;;;;;16.83;9.03;;;;;;;2.42;100.00;99261.72;4822004;29;19919;-59
2022/01/28 01:57:04;;;;;;;19.20;9.98;;;;;;;2.32;100.00;99264.34;4821957;29;20277;-58
2022/01/28 01:59:30;;;;;;;18.90;9.73;;;;;;;2.45;100.00;99258.78;4823576;29;20087;-59
2022/01/28 02:01:56;;;;;;;18.07;9.30;;;;;;;2.39;100.00;99262.81;4825126;29;20277;-58
2022/01/28 02:04:22;;;;;;;19.07;10.37;;;;;;;2.37;100.00;99258.66;4825071;29;20435;-59
2022/01/28 02:06:48;;;;;;;17.00;9.90;;;;;;;2.43;100.00;99268.63;4825329;29;20752;-59
2022/01/28 02:09:14;;;;;;;19.13;10.83;;;;;;;2.48;100.00;99277.78;4824963;29;20811;-58
2022/01/28 02:11:40;;;;;;;19.13;10.77;;;;;;;2.60;100.00;99275.00;4824768;29;20369;-58
2022/01/28 02:14:06;;;;;;;19.60;10.33;;;;;;;2.62;100.00;99270.41;4824972;29;20034;-58
2022/01/28 02:16:32;;;;;;;20.77;10.97;;;;;;;2.57;100.00;99278.75;4824878;29;20357;-59
2022/01/28 02:18:57;;;;;;;18.90;10.67;;;;;;;2.54;100.00;99284.28;4824918;29;20034;-59
2022/01/28 02:21:23;;;;;;;22.07;10.97;;;;;;;2.66;100.00;99271.75;4824795;29;20034;-58
2022/01/28 02:23:54;;;;;;;22.43;11.27;;;;;;;2.71;100.00;99280.09;4824773;29;20054;-58
2022/01/28 02:26:19;;;;;;;18.00;10.23;;;;;;;2.72;100.00;99287.03;4824664;29;20030;-59
2022/01/28 02:28:49;;;;;;;19.93;11.10;;;;;;;2.79;100.00;99288.13;4824598;29;20294;-59
2022/01/28 02:31:22;;;;;;;19.50;11.23;;;;;;;2.74;100.00;99293.00;4824647;29;20449;-59
2022/01/28 02:33:48;;;;;;;20.83;11.53;;;;;;;2.74;100.00;99290.38;4824684;29;20270;-59
2022/01/28 02:36:14;;;;;;;19.17;11.50;;;;;;;2.74;100.00;99296.47;4824444;29;20266;-58
2022/01/28 02:38:40;;;;;;;19.80;10.70;;;;;;;2.75;100.00;99300.78;4824596;29;20272;-58
2022/01/28 02:41:06;;;;;;;19.40;10.63;;;;;;;2.80;100.00;99292.41;4823506;29;20105;-59
2022/01/28 02:43:43;;;;;;;17.07;9.70;;;;;;;2.82;100.00;99298.41;4824666;29;20477;-58
2022/01/28 02:46:13;;;;;;;14.30;8.67;;;;;;;2.90;100.00;99291.41;4824508;29;20270;-58
2022/01/28 02:48:42;;;;;;;15.90;8.70;;;;;;;3.01;100.00;99305.41;4823197;29;20309;-58
2022/01/28 02:51:15;;;;;;;14.70;7.90;;;;;;;2.96;100.00;99303.22;4824457;29;20285;-58
2022/01/28 02:53:45;;;;;;;;;;;;;;;2.87;100.00;99304.94;4825105;29;20313;-58
2022/01/28 02:56:17;;;;;;;10.97;6.67;;;;;;;3.02;100.00;99307.91;4824410;29;19923;-59
2022/01/28 02:58:44;;;;;;;9.57;6.60;;;;;;;2.98;100.00;99306.56;4824621;29;20759;-59
2022/01/28 03:01:13;;;;;;;10.90;6.63;;;;;;;3.05;100.00;99312.06;4823081;29;20274;-59
2022/01/28 03:03:45;;;;;;;9.83;5.97;;;;;;;3.14;100.00;99311.19;4824213;29;20343;-59
2022/01/28 03:06:12;;;;;;;9.30;5.97;;;;;;;3.15;100.00;99311.06;4824200;29;20278;-59
2022/01/28 03:08:42;;;;;;;10.17;5.77;;;;;;;3.11;100.00;99333.47;4824115;29;20346;-59
2022/01/28 03:16:29;;;;;;;9.10;5.50;;;;;;;3.35;100.00;99305.69;4824092;29;20357;-58
2022/01/28 03:18:59;;;;;;;8.10;5.20;;;;;;;3.46;100.00;99318.72;4823824;29;20414;-59
2022/01/28 03:24:00;;;;;;;9.67;5.57;;;;;;;3.46;100.00;99305.53;4824049;29;20282;-59
2022/01/28 03:26:27;;;;;;;9.07;5.40;;;;;;;3.57;100.00;99326.47;4823698;29;20622;-59
2022/01/28 03:28:54;;;;;;;8.47;5.30;;;;;;;3.57;100.00;99329.94;4823748;29;20289;-58
2022/01/28 03:31:19;;;;;;;9.83;5.10;;;;;;;3.58;100.00;99325.44;4823730;29;20276;-59
2022/01/28 03:33:45;;;;;;;8.57;5.10;;;;;;;3.43;100.00;99321.66;4823771;29;21140;-59
2022/01/28 03:36:12;;;;;;;8.20;4.83;;;;;;;3.42;100.00;99341.97;4823563;29;20031;-58
2022/01/28 03:38:39;;;;;;;7.47;4.90;;;;;;;3.43;100.00;99342.78;4823901;29;20349;-58
2022/01/28 03:41:15;;;;;;;7.60;4.90;;;;;;;3.49;100.00;99347.47;4823550;29;20748;-58
2022/01/28 03:43:40;;;;;;;8.63;4.87;;;;;;;3.51;100.00;99350.81;4823522;29;20369;-59
2022/01/28 03:46:06;;;;;;;7.83;5.17;;;;;;;3.45;100.00;99367.25;4823749;29;20795;-58
2022/01/28 03:48:32;;;;;;;7.93;4.50;;;;;;;3.51;100.00;99359.56;4823342;29;20087;-59
2022/01/28 03:50:57;;;;;;;9.00;5.13;;;;;;;3.43;100.00;99362.13;4823629;29;20305;-59
2022/01/28 03:53:23;;;;;;;8.03;5.03;;;;;;;3.50;100.00;99373.75;4823442;29;20038;-58
2022/01/28 03:55:53;;;;;;;8.07;4.80;;;;;;;3.45;100.00;99367.25;4823330;29;20034;-59
2022/01/28 03:58:19;;;;;;;7.67;4.93;;;;;;;3.51;100.00;99362.22;4823331;29;20030;-58
2022/01/28 04:00:46;;;;;;;7.67;4.67;;;;;;;3.55;100.00;99360.13;4823185;29;20278;-59
2022/01/28 04:11:36;;;;;;;8.50;4.80;;;;;;;3.62;100.00;99383.16;4822925;29;20293;-59
2022/01/28 04:15:04;;;;;;;7.80;5.13;;;;;;;3.59;100.00;99391.38;4821882;29;20293;-58
2022/01/28 04:19:51;;;;;;;9.23;5.20;;;;;;;3.71;100.00;99384.06;4820584;29;20270;-59
2022/01/28 04:22:18;;;;;;;8.17;4.80;;;;;;;3.70;100.00;99392.97;4820127;29;20844;-59
2022/01/28 04:24:43;;;;;;;8.40;5.20;;;;;;;3.69;100.00;99391.34;4820494;29;20305;-59
2022/01/28 04:27:09;;;;;;;7.40;4.57;;;;;;;3.75;100.00;99387.25;4820614;29;20301;-58
2022/01/28 04:29:35;;;;;;;8.67;5.03;;;;;;;3.79;100.00;99384.19;4820224;29;20497;-59
2022/01/28 04:32:01;;;;;;;8.77;5.17;;;;;;;3.72;100.00;99382.25;4820470;29;20142;-59
2022/01/28 04:34:26;;;;;;;10.00;5.57;;;;;;;3.75;100.00;99384.63;4820466;29;20034;-59
2022/01/28 04:45:32;;;;;;;9.23;5.90;;;;;;;3.79;100.00;99394.78;4820416;29;20819;-59
2022/01/28 05:00:31;;;;;;;13.13;7.23;;;;;;;3.49;100.00;99409.06;4821296;29;20346;-59
2022/01/28 05:26:53;;;;;;;11.37;6.90;;;;;;;3.61;100.00;99425.56;4822058;29;20431;-58
2022/01/28 05:29:19;;;;;;;9.87;5.83;;;;;;;3.55;100.00;99437.56;4821907;29;20091;-58
2022/01/28 05:31:44;;;;;;;11.50;6.47;;;;;;;3.65;100.00;99445.47;4827549;29;20747;-59
2022/01/28 05:34:10;;;;;;;9.60;6.07;;;;;;;3.55;100.00;99429.66;4839555;29;20037;-59
2022/01/28 05:36:35;;;;;;;9.13;5.40;;;;;;;3.70;100.00;99439.72;4843713;29;20029;-58
2022/01/28 05:39:02;;;;;;;10.77;5.80;;;;;;;3.56;100.00;99455.09;4844033;29;20034;-59
2022/01/28 05:41:27;;;;;;;9.77;5.43;;;;;;;3.33;100.00;99445.84;4843673;29;20469;-59
2022/01/28 05:43:53;;;;;;;10.33;5.33;;;;;;;3.35;100.00;99454.44;4844011;29;20277;-59
2022/01/28 05:46:18;;;;;;;8.30;4.43;;;;;;;3.14;100.00;99483.66;4843861;29;20097;-59
2022/01/28 05:48:44;;;;;;;7.43;3.90;;;;;;;3.15;100.00;99463.38;4843872;29;20030;-58
2022/01/28 05:51:11;;;;;;;7.10;3.63;;;;;;;3.07;100.00;99468.53;4844050;29;20341;-58
2022/01/28 05:53:38;;;;;;;6.40;3.57;;;;;;;3.01;100.00;99466.44;4827239;29;20041;-58
2022/01/28 05:56:03;;;;;;;6.43;3.37;;;;;;;2.89;100.00;99469.22;4843588;29;20281;-58
2022/01/28 05:58:29;;;;;;;6.47;3.60;;;;;;;2.91;100.00;99469.09;4843609;29;20269;-58
2022/01/28 06:00:55;;;;;;;7.73;3.73;;;;;;;2.86;100.00;99472.16;4843474;29;20029;-59
2022/01/28 06:03:20;;;;;;;8.07;3.93;;;;;;;2.86;100.00;99476.63;4843379;29;20105;-58
2022/01/28 06:05:47;;;;;;;10.23;4.60;;;;;;;2.80;100.00;99485.06;4843490;29;20038;-58
2022/01/28 06:08:13;;;;;;;7.20;4.60;;;;;;;2.76;100.00;99491.63;4843404;29;20033;-58
2022/01/28 06:10:39;;;;;;;9.93;5.77;;;;;;;2.80;100.00;99488.53;4843129;29;20277;-58
2022/01/28 06:13:05;;;;;;;11.07;5.90;;;;;;;2.79;100.00;99493.97;4843083;29;20054;-58
2022/01/28 06:15:32;;;;;;;12.03;6.70;;;;;;;2.74;100.00;99490.91;4843147;29;20030;-58
2022/01/28 06:17:57;;;;;;;12.80;6.93;;;;;;;2.67;100.00;99489.78;4843214;29;20269;-58
2022/01/28 06:20:23;;;;;;;11.93;6.23;;;;;;;2.64;100.00;99480.38;4843149;29;20277;-58
2022/01/28 06:22:49;;;;;;;12.27;6.10;;;;;;;2.55;100.00;99481.16;4843163;29;20174;-59
2022/01/28 06:25:15;;;;;;;11.83;5.47;;;;;;;2.52;100.00;99484.09;4843104;29;20041;-58
2022/01/28 06:27:42;;;;;;;7.83;4.93;;;;;;;2.51;100.00;99485.06;4842615;29;20026;-58
2022/01/28 06:30:08;;;;;;;13.47;7.73;;;;;;;2.59;100.00;99492.28;4841811;29;20308;-59
2022/01/28 06:32:34;;;;;;;8.73;4.87;;;;;;;2.43;100.00;99498.06;4842960;29;20881;-58
2022/01/28 06:35:01;;;;;;;12.73;5.37;;;;;;;2.48;100.00;99509.06;4842915;29;20276;-59
2022/01/28 06:37:27;;;;;;;8.93;4.57;;;;;;;2.53;100.00;99517.41;4842982;29;20679;-58
2022/01/28 06:39:54;;;;;;;7.00;4.00;;;;;;;2.70;100.00;99515.91;4842966;29;20280;-58
2022/01/28 06:42:19;;;;;;;7.43;3.90;;;;;;;2.77;100.00;99522.31;4842688;29;20280;-58
2022/01/28 06:44:45;;;;;;;7.53;3.97;;;;;;;2.81;100.00;99521.06;4842678;29;20273;-59
2022/01/28 06:47:11;;;;;;;6.77;3.50;;;;;;;2.76;100.00;99520.66;4842868;29;20540;-59
2022/01/28 06:49:38;;;;;;;6.57;3.27;;;;;;;2.81;100.00;99534.25;4842730;29;20034;-58
2022/01/28 06:52:06;;;;;;;6.03;2.97;;;;;;;2.75;100.00;99534.81;4842774;29;20277;-59
2022/01/28 06:54:32;;;;;;;7.03;3.20;;;;;;;2.71;100.00;99546.59;4842882;29;20266;-59
2022/01/28 06:56:58;;;;;;;6.57;3.10;;;;;;;2.73;100.00;99542.84;4842798;29;20276;-60
2022/01/28 06:59:23;;;;;;;7.67;3.13;;;;;;;2.53;100.00;99557.81;4842624;29;20771;-58
2022/01/28 07:01:49;;;;;;;7.13;3.30;;;;;;;2.65;100.00;99550.63;4842540;29;20090;-58
2022/01/28 07:04:15;;;;;;;5.93;3.07;;;;;;;2.76;100.00;99558.44;4842633;29;20046;-59
2022/01/28 07:06:40;;;;;;;6.97;3.40;;;;;;;2.93;100.00;99559.53;4830695;29;20038;-58
2022/01/28 07:09:07;;;;;;;6.27;3.50;;;;;;;2.84;100.00;99549.81;4824338;29;20285;-58
2022/01/28 07:11:33;;;;;;;6.20;3.87;;;;;;;2.95;100.00;99559.41;4828053;29;20065;-58
2022/01/28 07:13:59;;;;;;;6.20;3.53;;;;;;;3.01;100.00;99551.75;4824365;29;20274;-58
2022/01/28 07:16:24;;;;;;;6.17;3.20;;;;;;;2.83;100.00;99553.41;4824092;29;20038;-58
2022/01/28 07:18:50;;;;;;;6.37;3.47;;;;;;;2.97;100.00;99562.75;4824257;29;20106;-58
2022/01/28 07:21:15;;;;;;;8.23;3.40;;;;;;;2.87;100.00;99555.66;4824180;29;20478;-58
2022/01/28 07:23:41;;;;;;;9.00;3.80;;;;;;;2.97;100.00;99558.31;4822723;29;20109;-58
2022/01/28 07:26:06;;;;;;;6.97;3.63;;;;;;;3.20;100.00;99564.16;4824023;29;20400;-58
2022/01/28 07:28:34;;;;;;;5.93;3.70;;;;;;;3.16;100.00;99571.50;4839897;29;20053;-58
2022/01/28 07:31:00;;;;;;;28.60;15.27;;;;;;;3.19;100.00;99571.22;4842055;29;20022;-59
2022/01/28 07:33:25;;;;;;;9.03;4.77;;;;;;;3.26;100.00;99571.50;4839821;29;20274;-67
2022/01/28 07:35:50;;;;;;;7.53;4.47;;;;;;;3.27;100.00;99575.81;4825368;29;20056;-60
2022/01/28 07:38:16;;;;;;;9.87;4.67;;;;;;;3.19;100.00;99565.13;4835688;29;20030;-61
2022/01/28 07:40:41;;;;;;;10.20;5.07;;;;;;;3.21;100.00;99560.53;4841629;29;20032;-61
2022/01/28 07:43:10;;;;;;;8.93;4.80;;;;;;;3.51;100.00;99555.06;4841784;29;20562;-60
2022/01/28 07:45:36;;;;;;;7.40;4.70;;;;;;;3.51;100.00;99556.88;4841903;29;20392;-60
2022/01/28 07:48:01;;;;;;;9.70;4.47;;;;;;;3.45;100.00;99553.00;4841433;29;20380;-60
2022/01/28 07:50:27;;;;;;;8.53;4.37;;;;;;;3.51;100.00;99547.16;4841767;29;20038;-60
2022/01/28 07:52:52;;;;;;;7.90;4.70;;;;;;;3.44;100.00;99569.84;4841509;29;20054;-61
2022/01/28 07:55:18;;;;;;;10.10;5.07;;;;;;;3.19;100.00;99573.03;4841576;29;20400;-61
2022/01/28 07:57:45;;;;;;;9.60;5.70;;;;;;;3.12;100.00;99585.94;4840750;29;20057;-61
2022/01/28 08:00:12;;;;;;;10.83;5.70;;;;;;;2.82;100.00;99600.09;4841228;29;20030;-60
2022/01/28 08:02:38;;;;;;;9.27;5.53;;;;;;;2.93;100.00;99601.78;4841646;29;20356;-59
2022/01/28 08:05:04;;;;;;;11.13;5.47;;;;;;;2.71;100.00;99602.00;4840904;29;20360;-59
2022/01/28 08:07:29;;;;;;;11.27;5.90;;;;;;;2.86;100.00;99611.22;4836531;29;20034;-60
2022/01/28 08:09:55;;;;;;;12.20;5.87;;;;;;;3.01;100.00;99609.84;4822888;29;20045;-61
2022/01/28 08:12:21;;;;;;;10.77;5.00;;;;;;;2.91;100.00;99620.38;4822845;29;20085;-62
2022/01/28 08:14:47;;;;;;;8.77;4.47;;;;;;;2.99;100.00;99625.00;4822017;29;20030;-62
2022/01/28 08:17:13;;;;;;;7.17;4.07;;;;;;;3.21;100.00;99621.28;4822852;29;20342;-61
2022/01/28 08:19:38;;;;;;;9.30;4.40;;;;;;;3.21;100.00;99619.47;4823061;29;20033;-62
2022/01/28 08:22:04;;;;;;;8.60;4.33;;;;;;;3.27;100.00;99626.00;4822979;29;20066;-61
2022/01/28 08:24:30;;;;;;;8.70;4.20;;;;;;;3.19;100.00;99623.22;4823050;29;20105;-61
2022/01/28 08:26:55;;;;;;;8.53;4.53;;;;;;;3.12;100.00;99625.56;4825473;29;20049;-60
2022/01/28 08:29:21;;;;;;;9.87;4.23;;;;;;;3.31;100.00;99632.69;4825211;29;20362;-60
2022/01/28 08:31:47;;;;;;;7.73;4.33;;;;;;;3.37;100.00;99631.28;4822854;29;20066;-61
2022/01/28 08:34:12;;;;;;;8.50;4.63;;;;;;;3.36;100.00;99638.38;4823003;29;20045;-61
2022/01/28 08:36:38;;;;;;;8.73;4.33;;;;;;;3.55;100.00;99648.13;4822836;29;20515;-59
2022/01/28 08:39:05;;;;;;;8.00;4.27;;;;;;;3.66;100.00;99649.78;4822817;29;20046;-62
2022/01/28 08:41:32;;;;;;;7.70;4.73;;;;;;;3.46;100.00;99662.16;4822805;29;20038;-59
2022/01/28 08:43:58;;;;;;;6.87;4.37;;;;;;;3.51;100.00;99665.22;4822400;29;20270;-58
2022/01/28 08:46:24;;;;;;;7.60;4.20;;;;;;;3.70;100.00;99659.91;4822646;29;20286;-58
2022/01/28 08:48:49;;;;;;;7.67;4.20;;;;;;;3.60;100.00;99665.22;4822590;29;20069;-58
2022/01/28 08:51:15;;;;;;;7.53;4.27;;;;;;;3.66;100.00;99668.28;4822725;29;20037;-59
2022/01/28 08:53:42;;;;;;;8.77;4.70;;;;;;;3.60;100.00;99667.00;4822483;29;20038;-58
2022/01/28 08:56:10;;;;;;;8.40;4.70;;;;;;;3.78;100.00;99675.94;4822407;29;20277;-58
2022/01/28 08:58:35;;;;;;;11.47;4.57;;;;;;;3.70;100.00;99690.78;4822451;29;20284;-58
2022/01/28 09:01:01;;;;;;;8.07;4.73;;;;;;;3.38;100.00;99686.63;4822414;29;20270;-58
2022/01/28 09:03:27;;;;;;;6.80;4.13;;;;;;;3.25;100.00;99692.16;4822385;29;20067;-58
2022/01/28 09:05:52;;;;;;;9.67;5.17;;;;;;;3.43;100.00;99694.13;4822403;29;20396;-59
2022/01/28 09:08:18;;;;;;;10.27;5.13;;;;;;;3.33;100.00;99691.50;4822169;29;20038;-59
2022/01/28 09:10:55;;;;;;;11.23;5.30;;;;;;;3.17;100.00;99702.56;4822196;29;20230;-59
2022/01/28 09:15:47;;;;;;;9.30;5.13;;;;;;;2.85;100.00;99715.97;4822483;29;20274;-59
2022/01/28 09:18:13;;;;;;;9.83;5.40;;;;;;;2.42;100.00;99741.72;4822266;29;20034;-58
2022/01/28 09:20:39;;;;;;;6.23;3.50;;;;;;;2.14;100.00;99738.75;4822462;29;20037;-57
2022/01/28 09:23:06;;;;;;;5.90;2.60;;;;;;;1.94;100.00;99736.97;4822169;29;20037;-58
2022/01/28 09:25:33;;;;;;;4.63;2.33;;;;;;;2.01;100.00;99729.38;4821479;29;20280;-59
2022/01/28 09:27:59;;;;;;;5.67;2.50;;;;;;;2.24;100.00;99723.00;4838534;29;20285;-59
2022/01/28 09:30:25;;;;;;;5.27;2.20;;;;;;;2.15;100.00;99732.53;4840008;29;20284;-60
2022/01/28 09:32:51;;;;;;;4.53;2.10;;;;;;;2.31;100.00;99742.59;4840156;29;20041;-58
2022/01/28 09:35:16;;;;;;;6.23;2.30;;;;;;;2.57;100.00;99732.50;4840187;29;20026;-57
2022/01/28 09:37:42;;;;;;;5.40;2.47;;;;;;;3.53;100.00;99731.97;4840007;29;20033;-58
2022/01/28 09:40:08;;;;;;;6.00;2.70;;;;;;;4.33;100.00;99739.59;4840085;29;20025;-58
2022/01/28 09:42:37;;;;;;;5.70;2.60;;;;;;;4.27;100.00;99741.00;4839951;29;20042;-58
2022/01/28 09:45:04;;;;;;;6.07;2.90;;;;;;;3.53;100.00;99748.66;4839986;29;20102;-58
2022/01/28 09:47:31;;;;;;;6.93;3.43;;;;;;;3.66;100.00;99747.56;4838560;29;20796;-58
2022/01/28 09:49:57;;;;;;;7.20;3.90;;;;;;;3.82;100.00;99732.81;4839831;29;20309;-58
2022/01/28 09:52:23;;;;;;;6.27;3.67;;;;;;;3.70;100.00;99749.78;4840124;29;20612;-58
2022/01/28 09:54:48;;;;;;;6.13;3.30;;;;;;;3.48;100.00;99744.75;4840039;29;20276;-58
2022/01/28 09:57:21;;;;;;;6.10;3.13;;;;;;;3.58;100.00;99732.38;4840102;29;20108;-58
2022/01/28 09:59:47;;;;;;;6.80;3.13;;;;;;;3.54;100.00;99745.06;4840100;29;20101;-58
2022/01/28 10:02:13;;;;;;;6.07;3.30;;;;;;;3.95;100.00;99729.91;4839873;29;20262;-58
2022/01/28 10:04:39;;;;;;;5.97;3.20;;;;;;;3.74;100.00;99735.31;4840040;29;20265;-58
2022/01/28 10:07:13;;;;;;;7.67;3.20;;;;;;;3.73;100.00;99736.28;4840008;29;20305;-58
2022/01/28 10:10:00;;;;;;;7.57;3.20;;;;;;;3.80;100.00;99737.44;4839821;29;20285;-58
2022/01/28 10:12:41;;;;;;;6.33;3.27;;;;;;;3.85;100.00;99747.56;4839797;29;20772;-58
2022/01/28 10:15:20;;;;;;;12.13;3.50;;;;;;;4.05;100.00;99746.59;4840083;29;20269;-58
2022/01/28 10:17:53;;;;;;;8.53;3.03;;;;;;;3.75;100.00;99752.03;4839991;29;20297;-58
2022/01/28 10:20:21;;;;;;;6.85;3.28;;;;;;;4.38;100.00;99764.66;4841627;29;20360;-57
2022/01/28 10:22:58;;;;;;;5.77;3.10;;;;;;;4.49;100.00;99763.69;4843395;29;20038;-59
2022/01/28 10:25:24;;;;;;;5.87;3.13;;;;;;;4.54;100.00;99757.94;4842977;29;20276;-58
2022/01/28 10:28:03;;;;;;;8.93;3.17;;;;;;;4.37;100.00;99764.81;4842826;29;20289;-58
2022/01/28 10:30:29;;;;;;;7.50;3.50;;;;;;;3.89;100.00;99778.06;4841575;29;20273;-58
2022/01/28 10:33:14;;;;;;;5.93;3.20;;;;;;;4.32;100.00;99762.59;4843141;29;21120;-57
2022/01/28 10:36:05;;;;;;;6.80;2.90;;;;;;;4.40;100.00;99766.31;4843086;29;20030;-58
2022/01/28 10:38:43;;;;;;;6.43;3.27;;;;;;;4.34;100.00;99763.28;4843011;29;20273;-59
2022/01/28 10:41:09;;;;;;;7.03;2.63;;;;;;;4.44;100.00;99757.13;4843032;29;20293;-58
2022/01/28 10:43:50;;;;;;;7.27;2.83;;;;;;;4.71;100.00;99760.69;4842842;29;20293;-58
2022/01/28 10:46:22;;;;;;;5.20;2.57;;;;;;;4.35;100.00;99757.00;4843115;29;20269;-57
2022/01/28 10:49:08;;;;;;;6.67;2.80;;;;;;;4.50;100.00;99753.94;4842873;29;21101;-58
2022/01/28 10:51:47;;;;;;;7.87;3.50;;;;;;;4.30;100.00;99759.22;4842533;29;20286;-57
2022/01/28 10:54:19;;;;;;;6.27;2.80;;;;;;;4.17;100.00;99766.63;4842802;29;20827;-58
2022/01/28 10:56:50;;;;;;;6.60;2.77;;;;;;;4.17;100.00;99768.44;4842770;29;20269;-59
2022/01/28 10:59:21;;;;;;;8.00;3.20;;;;;;;4.05;100.00;99775.69;4842658;29;20348;-60
2022/01/28 11:01:48;;;;;;;5.73;2.70;;;;;;;4.26;100.00;99765.81;4842619;29;20365;-59
2022/01/28 11:04:15;;;;;;;8.33;3.50;;;;;;;4.30;100.00;99759.22;4842516;29;20274;-60
2022/01/28 11:06:42;;;;;;;6.97;2.97;;;;;;;4.72;100.00;99753.59;4842569;29;20272;-59
2022/01/28 11:09:09;;;;;;;7.27;3.33;;;;;;;4.49;100.00;99757.56;4842439;29;20834;-59
2022/01/28 11:11:35;;;;;;;5.80;3.20;;;;;;;4.81;100.00;99754.53;4842279;29;20361;-58
2022/01/28 11:14:02;;;;;;;8.07;3.73;;;;;;;4.91;100.00;99756.16;4841184;29;20273;-59
2022/01/28 11:16:28;;;;;;;23.50;14.83;;;;;;;4.66;100.00;99754.16;4842489;29;20743;-61
2022/01/28 11:18:55;;;;;;;13.47;7.30;;;;;;;4.58;100.00;99756.69;4842468;29;20322;-59
2022/01/28 11:21:27;;;;;;;10.53;3.83;;;;;;;4.15;100.00;99760.66;4842352;29;20053;-59
2022/01/28 11:24:07;;;;;;;6.60;3.77;;;;;;;4.61;100.00;99751.94;4841062;29;20270;-59
2022/01/28 11:26:43;;;;;;;6.87;2.93;;;;;;;4.62;100.00;99750.13;4842276;29;20266;-58
2022/01/28 11:29:13;;;;;;;7.93;3.13;;;;;;;4.74;100.00;99747.16;4840813;29;20296;-60
2022/01/28 11:31:41;;;;;;;7.10;2.73;;;;;;;4.42;100.00;99757.25;4839848;29;20281;-60
2022/01/28 11:34:28;;;;;;;5.57;2.97;;;;;;;4.53;100.00;99751.81;4842026;29;20266;-60
2022/01/28 11:36:55;;;;;;;7.67;2.90;;;;;;;4.51;100.00;99743.19;4840458;29;20283;-67
2022/01/28 11:39:41;;;;;;;7.53;2.70;;;;;;;4.64;100.00;99745.50;4841911;29;20270;-65
2022/01/28 11:42:13;;;;;;;7.77;3.83;;;;;;;4.55;100.00;99756.97;4841757;29;20308;-65
2022/01/28 11:44:51;;;;;;;7.67;2.87;;;;;;;4.58;100.00;99751.41;4841845;29;20280;-64
2022/01/28 11:47:27;;;;;;;7.17;2.70;;;;;;;4.60;100.00;99747.63;4841960;29;20356;-64
2022/01/28 11:49:56;;;;;;;6.33;3.13;;;;;;;4.83;100.00;99771.13;4841448;29;20281;-65
2022/01/28 11:52:30;;;;;;;6.03;2.40;;;;;;;4.72;100.00;99761.53;4841633;29;20273;-63
2022/01/28 11:54:57;;;;;;;4.97;2.60;;;;;;;5.81;100.00;99774.78;4841535;29;20780;-63
2022/01/28 11:57:26;;;;;;;7.50;2.30;;;;;;;5.15;100.00;99791.91;4841446;29;20265;-64
2022/01/28 12:00:19;;;;;;;6.27;2.90;;;;;;;5.24;100.00;99770.66;4841347;29;20328;-62
2022/01/28 12:02:50;;;;;;;6.17;2.40;;;;;;;5.22;100.00;99767.31;4841429;29;20639;-61
2022/01/28 12:05:26;;;;;;;7.27;2.83;;;;;;;5.02;100.00;99771.03;4841493;29;20608;-63
2022/01/28 12:07:54;;;;;;;8.07;3.37;;;;;;;5.03;100.00;99773.53;4841188;29;20265;-63
2022/01/28 12:10:20;;;;;;;5.40;2.33;;;;;;;4.74;100.00;99768.34;4841263;29;20702;-63
2022/01/28 12:12:57;;;;;;;6.80;2.60;;;;;;;4.86;100.00;99776.09;4841076;29;20293;-64
2022/01/28 12:15:24;;;;;;;4.57;2.40;;;;;;;4.73;100.00;99771.94;4841312;29;20270;-64
2022/01/28 12:17:51;;;;;;;5.90;2.30;;;;;;;4.73;100.00;99757.88;4841109;29;20283;-64
2022/01/28 12:20:18;;;;;;;5.93;2.20;;;;;;;4.73;100.00;99766.66;4840919;29;20839;-65
2022/01/28 12:22:59;;;;;;;4.97;2.10;;;;;;;4.82;100.00;99764.16;4840980;29;20293;-62
2022/01/28 12:25:37;;;;;;;6.20;1.80;;;;;;;4.51;100.00;99774.09;4840923;29;20270;-63
2022/01/28 12:28:17;;;;;;;7.33;3.23;;;;;;;4.43;100.00;99782.75;4840708;29;20372;-59
2022/01/28 12:30:46;;;;;;;3.97;1.90;;;;;;;3.91;100.00;99794.63;4839523;29;20335;-59
2022/01/28 12:33:12;;;;;;;5.57;2.17;;;;;;;3.59;100.00;99786.91;4840886;29;20823;-59
2022/01/28 12:35:38;;;;;;;4.60;2.23;;;;;;;3.71;100.00;99792.91;4840722;29;20269;-60
2022/01/28 12:38:05;;;;;;;3.40;1.60;;;;;;;3.78;100.00;99794.88;4840619;29;20277;-59
2022/01/28 12:40:39;;;;;;;6.10;2.07;;;;;;;3.88;100.00;99777.22;4820319;29;20278;-60
2022/01/28 12:43:06;;;;;;;3.57;1.93;;;;;;;4.05;100.00;99783.59;4821268;29;20302;-60
2022/01/28 12:45:33;;;;;;;6.23;1.83;;;;;;;4.48;100.00;99766.47;4819909;29;20274;-60
2022/01/28 12:47:59;;;;;;;6.27;3.60;;;;;;;4.46;100.00;99766.59;4822071;29;20282;-60
2022/01/28 12:50:26;;;;;;;6.10;2.03;;;;;;;4.31;100.00;99760.06;4821182;29;20624;-60
2022/01/28 12:52:51;;;;;;;5.53;2.27;;;;;;;4.59;100.00;99756.56;4817949;29;20622;-60
2022/01/28 12:55:18;;;;;;;5.40;2.13;;;;;;;4.68;100.00;99755.69;4822296;29;20334;-60
2022/01/28 12:57:46;;;;;;;5.50;2.50;;;;;;;4.77;100.00;99745.19;4821100;29;20026;-60
2022/01/28 13:00:14;;;;;;;6.07;2.30;;;;;;;5.39;100.00;99748.00;4819539;29;20336;-60
2022/01/28 13:02:41;;;;;;;5.13;2.13;;;;;;;5.46;100.00;99753.50;4822298;29;20270;-59
2022/01/28 13:10:31;;;;;;;3.83;1.80;;;;;;;5.54;100.00;99753.59;4822379;29;20350;-61
2022/01/28 13:13:08;;;;;;;6.93;2.10;;;;;;;4.93;100.00;99751.56;4821799;29;20288;-60
2022/01/28 13:15:34;;;;;;;5.73;2.13;;;;;;;5.26;100.00;99750.16;4822306;29;20270;-72